createdAt,value
2019-05-26T00:02:19.814Z,100967.84
2019-05-26T00:07:44.660Z,100963.75
2019-05-26T00:13:09.112Z,100960.59
2019-05-26T00:18:34.320Z,100954.13
2019-05-26T00:23:57.964Z,100949.27
2019-05-26T00:29:22.046Z,100945.29
2019-05-26T00:34:46.726Z,100950.45
2019-05-26T00:40:12.095Z,100943.81
2019-05-26T00:45:37.138Z,100942.03
2019-05-26T00:51:00.775Z,100934.84
2019-05-26T00:56:25.595Z,100934.34
2019-05-26T01:01:49.829Z,100923.73
2019-05-26T01:07:13.375Z,100926.52
2019-05-26T01:12:37.437Z,100924.62
2019-05-26T01:18:02.284Z,100920.53
2019-05-26T01:23:26.658Z,100925.13
2019-05-26T01:28:51.557Z,100940.95
2019-05-26T01:34:15.445Z,100929.39
2019-05-26T01:39:40.111Z,100926.41
2019-05-26T01:45:05.187Z,100927.63
2019-05-26T01:50:30.278Z,100933.58
2019-05-26T01:55:54.721Z,100928.44
2019-05-26T02:01:20.109Z,100925.16
2019-05-26T02:06:44.907Z,100935.78
2019-05-26T02:12:09.551Z,100927.09
2019-05-26T02:17:34.660Z,100925.52
2019-05-26T02:22:59.395Z,100925.73
2019-05-26T02:28:23.144Z,100920.08
2019-05-26T02:33:47.897Z,100921.84
2019-05-26T02:39:12.159Z,100920.97
2019-05-26T02:44:36.818Z,100921.61
2019-05-26T02:50:01.251Z,100921.30
2019-05-26T02:55:25.903Z,100933.82
2019-05-26T03:00:50.145Z,100928.27
2019-05-26T03:06:15.364Z,100927.29
2019-05-26T03:11:40.738Z,100930.88
2019-05-26T03:17:04.397Z,100932.74
2019-05-26T03:22:29.522Z,100931.91
2019-05-26T03:27:54.426Z,100926.38
2019-05-26T03:33:18.362Z,100927.88
2019-05-26T03:38:43.025Z,100915.25
2019-05-26T03:44:07.325Z,100917.27
2019-05-26T03:49:31.923Z,100920.84
2019-05-26T03:54:57.541Z,100927.91
2019-05-26T04:00:22.167Z,100922.25
2019-05-26T04:05:45.949Z,100917.66
2019-05-26T04:11:10.319Z,100918.94
2019-05-26T04:16:34.546Z,100917.09
2019-05-26T04:21:58.698Z,100919.02
2019-05-26T04:27:23.080Z,100912.92
2019-05-26T04:32:47.742Z,100913.86
2019-05-26T04:38:12.549Z,100910.27
2019-05-26T04:43:36.443Z,100904.48
2019-05-26T04:49:00.974Z,100896.87
2019-05-26T04:54:25.682Z,100887.57
2019-05-26T04:59:50.463Z,100898.11
2019-05-26T05:05:14.780Z,100894.67
2019-05-26T05:10:42.732Z,100894.08
2019-05-26T05:16:04.131Z,100899.61
2019-05-26T05:21:28.039Z,100892.16
2019-05-26T05:26:52.984Z,100892.30
2019-05-26T05:32:16.900Z,100875.91
2019-05-26T05:37:41.377Z,100872.39
2019-05-26T05:43:05.986Z,100870.80
2019-05-26T05:48:31.646Z,100875.82
2019-05-26T05:53:55.629Z,100865.08
2019-05-26T05:59:20.245Z,100862.62
2019-05-26T06:04:44.096Z,100858.21
2019-05-26T06:10:08.634Z,100856.09
2019-05-26T06:15:33.190Z,100859.43
2019-05-26T06:20:57.650Z,100850.11
2019-05-26T06:26:22.415Z,100840.86
2019-05-26T06:31:47.209Z,100842.31
2019-05-26T06:37:11.200Z,100844.11
2019-05-26T06:42:35.762Z,100844.84
2019-05-26T06:47:59.628Z,100841.34
2019-05-26T06:53:24.420Z,100833.76
2019-05-26T06:58:48.891Z,100832.50
2019-05-26T07:04:12.713Z,100826.61
2019-05-26T07:09:36.480Z,100826.19
2019-05-26T07:15:01.161Z,100817.91
2019-05-26T07:20:26.929Z,100820.67
2019-05-26T07:25:50.574Z,100815.56
2019-05-26T07:31:15.141Z,100816.61
2019-05-26T07:36:39.369Z,100791.88
2019-05-26T07:42:10.527Z,100792.72
2019-05-26T07:47:29.753Z,100793.78
2019-05-26T07:52:54.499Z,100790.38
2019-05-26T07:58:19.251Z,100777.80
2019-05-26T08:03:42.911Z,100782.44
2019-05-26T08:09:09.004Z,100787.61
2019-05-26T08:14:33.680Z,100772.45
2019-05-26T08:19:57.335Z,100783.20
2019-05-26T08:25:21.180Z,100779.93
2019-05-26T08:30:45.220Z,100784.41
2019-05-26T08:36:09.419Z,100770.34
2019-05-26T08:41:33.076Z,100757.21
2019-05-26T08:46:57.844Z,100746.35
2019-05-26T08:52:22.609Z,100737.43
2019-05-26T08:57:47.357Z,100737.31
2019-05-26T09:03:11.714Z,100723.00
2019-05-26T09:08:36.526Z,100716.66
2019-05-26T09:14:01.484Z,100711.70
2019-05-26T09:19:26.421Z,100695.34
2019-05-26T09:24:50.484Z,100695.34
2019-05-26T09:30:14.807Z,100695.03
2019-05-26T09:35:38.725Z,100696.70
2019-05-26T09:41:03.494Z,100684.89
2019-05-26T09:46:28.542Z,100680.42
2019-05-26T09:51:53.079Z,100678.23
2019-05-26T09:57:16.683Z,100674.09
2019-05-26T10:02:41.548Z,100662.64
2019-05-26T10:08:06.521Z,100654.05
2019-05-26T10:13:32.143Z,100663.17
2019-05-26T10:18:57.396Z,100649.19
2019-05-26T10:24:21.079Z,100663.39
2019-05-26T10:29:45.870Z,100649.89
2019-05-26T10:35:11.421Z,100649.89
2019-05-26T10:40:35.083Z,100629.38
2019-05-26T10:46:00.994Z,100635.59
2019-05-26T10:51:25.114Z,100627.58
2019-05-26T10:56:49.790Z,100625.41
2019-05-26T11:02:14.253Z,100611.75
2019-05-26T11:07:38.695Z,100603.52
2019-05-26T11:13:02.634Z,100587.01
2019-05-26T11:18:26.641Z,100585.69
2019-05-26T11:23:50.345Z,100582.13
2019-05-26T11:29:13.975Z,100577.09
2019-05-26T11:34:37.847Z,100559.75
2019-05-26T11:40:01.715Z,100558.35
2019-05-26T11:45:26.324Z,100560.58
2019-05-26T11:50:50.793Z,100544.94
2019-05-26T11:56:14.523Z,100546.92
2019-05-26T12:01:39.487Z,100545.02
2019-05-26T12:07:04.445Z,100525.43
2019-05-26T12:12:29.203Z,100504.65
2019-05-26T12:17:54.725Z,100512.34
2019-05-26T12:23:19.287Z,100518.00
2019-05-26T12:28:43.974Z,100505.84
2019-05-26T12:34:08.362Z,100502.54
2019-05-26T12:39:32.522Z,100500.89
2019-05-26T12:44:56.198Z,100506.75
2019-05-26T12:50:21.011Z,100500.92
2019-05-26T12:55:45.400Z,100492.61
2019-05-26T13:01:09.821Z,100482.08
2019-05-26T13:06:34.307Z,100485.15
2019-05-26T13:11:58.920Z,100491.98
2019-05-26T13:17:22.770Z,100482.77
2019-05-26T13:22:47.825Z,100487.73
2019-05-26T13:28:11.530Z,100482.51
2019-05-26T13:33:36.380Z,100474.10
2019-05-26T13:39:00.411Z,100472.45
2019-05-26T13:44:26.145Z,100467.14
2019-05-26T13:49:50.641Z,100476.67
2019-05-26T13:55:15.008Z,100472.22
2019-05-26T14:00:39.243Z,100471.81
2019-05-26T14:06:03.188Z,100460.90
2019-05-26T14:11:27.878Z,100451.96
2019-05-26T14:16:54.284Z,100455.70
2019-05-26T14:22:18.197Z,100461.48
2019-05-26T14:27:42.869Z,100448.33
2019-05-26T14:33:07.402Z,100454.45
2019-05-26T14:38:42.878Z,100455.45
2019-05-26T14:43:57.864Z,100448.80
2019-05-26T14:49:22.883Z,100451.28
2019-05-26T14:54:47.636Z,100443.34
2019-05-26T15:00:12.169Z,100441.88
2019-05-26T15:05:36.910Z,100435.05
2019-05-26T15:11:00.934Z,100425.66
2019-05-26T15:16:24.719Z,100431.92
2019-05-26T15:21:49.039Z,100435.72
2019-05-26T15:27:13.865Z,100434.80
2019-05-26T15:32:37.782Z,100426.52
2019-05-26T15:38:01.984Z,100432.98
2019-05-26T15:43:26.714Z,100437.06
2019-05-26T15:48:50.381Z,100429.44
2019-05-26T15:54:15.210Z,100432.86
2019-05-26T15:59:40.014Z,100425.75
2019-05-26T16:05:03.914Z,100421.42
2019-05-26T16:10:29.075Z,100414.98
2019-05-26T16:15:53.892Z,100414.98
2019-05-26T16:21:27.694Z,100411.89
2019-05-26T16:26:43.872Z,100414.48
2019-05-26T16:32:08.701Z,100408.74
2019-05-26T16:37:33.445Z,100401.81
2019-05-26T16:42:57.995Z,100390.91
2019-05-26T16:48:23.078Z,100379.92
2019-05-26T16:53:47.785Z,100385.94
2019-05-26T16:59:12.493Z,100386.58
2019-05-26T17:04:37.417Z,100381.02
2019-05-26T17:10:02.239Z,100372.69
2019-05-26T17:15:26.347Z,100367.41
2019-05-26T17:20:49.883Z,100357.05
2019-05-26T17:26:14.384Z,100351.56
2019-05-26T17:31:39.494Z,100350.11
2019-05-26T17:37:07.919Z,100345.05
2019-05-26T17:42:50.095Z,100347.02
2019-05-26T17:48:17.705Z,100340.02
2019-05-26T17:53:41.714Z,100329.09
2019-05-26T17:59:06.087Z,100335.53
2019-05-26T18:04:30.021Z,100333.76
2019-05-26T18:09:53.720Z,100328.91
2019-05-26T18:15:18.463Z,100322.06
2019-05-26T18:20:42.446Z,100327.74
2019-05-26T18:26:07.030Z,100329.55
2019-05-26T18:31:31.023Z,100325.46
2019-05-26T18:36:55.813Z,100329.05
2019-05-26T18:42:19.551Z,100333.40
2019-05-26T18:47:43.331Z,100326.48
2019-05-26T18:53:07.558Z,100328.33
2019-05-26T18:58:32.552Z,100327.08
2019-05-26T19:03:56.387Z,100322.19
2019-05-26T19:09:20.195Z,100328.58
2019-05-26T19:14:44.949Z,100324.64
2019-05-26T19:20:16.071Z,100321.19
2019-05-26T19:25:36.229Z,100326.41
2019-05-26T19:31:00.154Z,100320.70
2019-05-26T19:36:24.918Z,100323.40
2019-05-26T19:41:49.863Z,100315.97
2019-05-26T19:47:13.774Z,100322.58
2019-05-26T19:52:38.508Z,100321.27
2019-05-26T19:58:03.142Z,100313.66
2019-05-26T20:03:26.927Z,100311.37
2019-05-26T20:08:51.975Z,100315.03
2019-05-26T20:14:16.455Z,100309.77
2019-05-26T20:19:40.848Z,100302.47
2019-05-26T20:25:06.555Z,100301.47
2019-05-26T20:30:31.009Z,100300.59
2019-05-26T20:35:56.012Z,100302.55
2019-05-26T20:41:19.643Z,100289.60
2019-05-26T20:46:43.590Z,100287.95
2019-05-26T20:52:07.270Z,100280.68
2019-05-26T20:57:31.880Z,100278.90
2019-05-26T21:02:56.538Z,100279.95
2019-05-26T21:08:20.935Z,100277.34
2019-05-26T21:13:44.639Z,100281.97
2019-05-26T21:19:08.803Z,100285.78
2019-05-26T21:24:32.631Z,100284.76
2019-05-26T21:29:57.180Z,100280.59
2019-05-26T21:35:21.914Z,100284.58
2019-05-26T21:40:46.663Z,100271.33
2019-05-26T21:46:10.879Z,100279.95
2019-05-26T21:51:35.129Z,100278.83
2019-05-26T21:56:59.863Z,100285.63
2019-05-26T22:02:24.012Z,100287.14
2019-05-26T22:07:48.616Z,100273.38
2019-05-26T22:13:12.488Z,100270.36
2019-05-26T22:18:36.170Z,100262.18
2019-05-26T22:24:00.880Z,100249.84
2019-05-26T22:29:26.618Z,100242.38
2019-05-26T22:34:51.343Z,100241.55
2019-05-26T22:40:16.728Z,100230.94
2019-05-26T22:45:41.345Z,100225.31
2019-05-26T22:51:05.806Z,100215.55
2019-05-26T22:56:30.308Z,100210.91
2019-05-26T23:01:53.968Z,100202.15
2019-05-26T23:07:18.014Z,100205.25
2019-05-26T23:12:41.887Z,100197.28
2019-05-26T23:18:06.482Z,100201.01
2019-05-26T23:23:30.338Z,100193.77
2019-05-26T23:28:54.817Z,100193.94
2019-05-26T23:34:19.676Z,100191.66
2019-05-26T23:39:44.163Z,100179.23
2019-05-26T23:45:08.350Z,100174.62
2019-05-26T23:50:33.003Z,100179.97
2019-05-26T23:55:57.693Z,100178.16
